メインページ
METAR-TAF:

METAR-TAF

空港 :

サスカトゥーン, サスカチュワン州, カナダ

サスカトゥーン・ジョン・G・ディーフェンベーカー国際空港

緯度: 52-10N, 経度: 106-41W, 海抜: 501m

現時点の気象観測

当レポートは1時間12分前の10:00(UTC)に作成
南西の風 7kt
気温 2°C
湿度 93%
気圧 996 hPa
視程: 24.1km
高度21000ftの千切れ雲あり

METAR: CYXE 201000Z 22007KT 15SM BKN210 02/01 A2942 RMK CI6 SLP980

時間: 05:12 (11:12 UTC)

予報

当レポートは5時間33分前の05:39(UTC)に作成
予報は20日の 06時(UTC)から 21日の 06時(UTC)まで有効
西の風 10kt
視程: 10km
高度22000ftの雲は散在している
20日の 10時(UTC)から 20日の 12時(UTC)まで徐々に
西/南西の風 8kt
晴天
20日の 1900時(UTC)から
西/南西の風 15kt
視程: 10km
晴天
21日の 01時(UTC)から 21日の 03時(UTC)まで徐々に
西/南西の風 8kt

TAF: CYXE 200539Z 2006/2106 27010KT P6SM SCT220 BECMG 2010/2012 24008KT SKC FM201900 24015KT P6SM SKC BECMG 2101/2103 25008KT RMK NXT FCST BY 201200Z

4,000以上の空港の気象観測と天気予報(METAR報とTAF報)

利用可能な観測所は地図上に黄色い丸と赤い丸で示す。

丸の上にカーソルを重ねると観測所名を参照できる。

次にクリックすると気象観測と天気予報を参照できる。

マップの切り替え:黒色「×」印の緑ボタンをクリックして拡大、「-」印の緑ボタンをクリックして縮小、緑色の三角印をクリックして隣りの地図に切り替え


METAR-TAF: